sensor_id;sensor_type;location;lat;lon;timestamp;temperature;humidity
54431;DHT22;40342;52.998;5.862;2023-06-22T00:02:16;17.70;99.90
54431;DHT22;40342;52.998;5.862;2023-06-22T00:04:41;17.70;99.90
54431;DHT22;40342;52.998;5.862;2023-06-22T00:07:07;17.70;99.90
54431;DHT22;40342;52.998;5.862;2023-06-22T00:09:33;17.70;99.90
54431;DHT22;40342;52.998;5.862;2023-06-22T00:11:58;17.70;99.90
54431;DHT22;40342;52.998;5.862;2023-06-22T00:14:24;17.60;99.90
54431;DHT22;40342;52.998;5.862;2023-06-22T00:16:50;17.70;99.90
54431;DHT22;40342;52.998;5.862;2023-06-22T00:19:20;17.60;99.90
54431;DHT22;40342;52.998;5.862;2023-06-22T00:21:47;17.70;99.90
54431;DHT22;40342;52.998;5.862;2023-06-22T00:24:13;17.70;99.90
54431;DHT22;40342;52.998;5.862;2023-06-22T00:26:39;17.60;99.90
54431;DHT22;40342;52.998;5.862;2023-06-22T00:29:04;17.60;99.90
54431;DHT22;40342;52.998;5.862;2023-06-22T00:31:30;17.50;99.90
54431;DHT22;40342;52.998;5.862;2023-06-22T00:33:55;17.50;99.90
54431;DHT22;40342;52.998;5.862;2023-06-22T00:36:21;17.50;99.90
54431;DHT22;40342;52.998;5.862;2023-06-22T00:38:46;17.50;99.90
54431;DHT22;40342;52.998;5.862;2023-06-22T00:41:12;17.50;99.90
54431;DHT22;40342;52.998;5.862;2023-06-22T00:43:38;17.50;99.90
54431;DHT22;40342;52.998;5.862;2023-06-22T00:46:03;17.40;99.90
54431;DHT22;40342;52.998;5.862;2023-06-22T00:48:29;17.40;99.90
54431;DHT22;40342;52.998;5.862;2023-06-22T00:50:55;17.20;99.90
54431;DHT22;40342;52.998;5.862;2023-06-22T00:53:21;17.10;99.90
54431;DHT22;40342;52.998;5.862;2023-06-22T00:55:48;16.90;99.90
54431;DHT22;40342;52.998;5.862;2023-06-22T00:58:17;16.70;99.90
54431;DHT22;40342;52.998;5.862;2023-06-22T01:00:47;16.60;99.90
54431;DHT22;40342;52.998;5.862;2023-06-22T01:03:12;16.50;99.90
54431;DHT22;40342;52.998;5.862;2023-06-22T01:05:39;16.40;99.90
54431;DHT22;40342;52.998;5.862;2023-06-22T01:08:49;16.40;99.90
54431;DHT22;40342;52.998;5.862;2023-06-22T01:11:11;16.40;99.90
54431;DHT22;40342;52.998;5.862;2023-06-22T01:14:02;16.40;99.90
54431;DHT22;40342;52.998;5.862;2023-06-22T01:16:31;16.40;99.90
54431;DHT22;40342;52.998;5.862;2023-06-22T01:19:01;16.40;99.90
54431;DHT22;40342;52.998;5.862;2023-06-22T01:21:30;16.40;99.90
54431;DHT22;40342;52.998;5.862;2023-06-22T01:24:15;16.40;99.90
54431;DHT22;40342;52.998;5.862;2023-06-22T01:29:59;16.50;99.90
54431;DHT22;40342;52.998;5.862;2023-06-22T01:32:34;16.50;99.90
54431;DHT22;40342;52.998;5.862;2023-06-22T01:35:03;16.40;99.90
54431;DHT22;40342;52.998;5.862;2023-06-22T01:37:30;16.40;99.90
54431;DHT22;40342;52.998;5.862;2023-06-22T01:39:58;16.40;99.90
54431;DHT22;40342;52.998;5.862;2023-06-22T01:42:25;16.40;99.90
54431;DHT22;40342;52.998;5.862;2023-06-22T01:44:52;16.30;99.90
54431;DHT22;40342;52.998;5.862;2023-06-22T01:47:18;16.30;99.90
54431;DHT22;40342;52.998;5.862;2023-06-22T01:49:46;16.20;99.90
54431;DHT22;40342;52.998;5.862;2023-06-22T01:52:11;16.20;99.90
54431;DHT22;40342;52.998;5.862;2023-06-22T01:54:39;16.20;99.90
54431;DHT22;40342;52.998;5.862;2023-06-22T01:57:05;16.20;99.90
54431;DHT22;40342;52.998;5.862;2023-06-22T02:00:04;16.20;99.90
54431;DHT22;40342;52.998;5.862;2023-06-22T02:02:44;16.20;99.90
54431;DHT22;40342;52.998;5.862;2023-06-22T02:05:16;16.20;99.90
54431;DHT22;40342;52.998;5.862;2023-06-22T02:07:53;16.20;99.90
54431;DHT22;40342;52.998;5.862;2023-06-22T02:10:20;16.30;99.90
54431;DHT22;40342;52.998;5.862;2023-06-22T02:12:48;16.30;99.90
54431;DHT22;40342;52.998;5.862;2023-06-22T02:15:14;16.40;99.90
54431;DHT22;40342;52.998;5.862;2023-06-22T02:17:40;16.30;99.90
54431;DHT22;40342;52.998;5.862;2023-06-22T02:20:12;16.30;99.90
54431;DHT22;40342;52.998;5.862;2023-06-22T02:22:38;16.30;99.90
54431;DHT22;40342;52.998;5.862;2023-06-22T02:25:04;16.30;99.90
54431;DHT22;40342;52.998;5.862;2023-06-22T02:27:30;16.20;99.90
54431;DHT22;40342;52.998;5.862;2023-06-22T02:29:55;16.10;99.90
54431;DHT22;40342;52.998;5.862;2023-06-22T02:32:21;16.10;99.90
54431;DHT22;40342;52.998;5.862;2023-06-22T02:34:46;16.00;99.90
54431;DHT22;40342;52.998;5.862;2023-06-22T02:37:14;16.00;99.90
54431;DHT22;40342;52.998;5.862;2023-06-22T02:39:40;15.90;99.90
54431;DHT22;40342;52.998;5.862;2023-06-22T02:42:06;15.90;99.90
54431;DHT22;40342;52.998;5.862;2023-06-22T02:44:31;15.90;99.90
54431;DHT22;40342;52.998;5.862;2023-06-22T02:46:57;15.90;99.90
54431;DHT22;40342;52.998;5.862;2023-06-22T02:49:23;15.90;99.90
54431;DHT22;40342;52.998;5.862;2023-06-22T02:51:49;15.90;99.90
54431;DHT22;40342;52.998;5.862;2023-06-22T02:54:15;15.90;99.90
54431;DHT22;40342;52.998;5.862;2023-06-22T02:56:41;16.00;99.90
54431;DHT22;40342;52.998;5.862;2023-06-22T02:59:09;16.00;99.90
54431;DHT22;40342;52.998;5.862;2023-06-22T03:01:35;16.00;99.90
54431;DHT22;40342;52.998;5.862;2023-06-22T03:04:05;16.00;99.90
54431;DHT22;40342;52.998;5.862;2023-06-22T03:06:31;16.00;99.90
54431;DHT22;40342;52.998;5.862;2023-06-22T03:09:00;16.10;99.90
54431;DHT22;40342;52.998;5.862;2023-06-22T03:11:26;16.10;99.90
54431;DHT22;40342;52.998;5.862;2023-06-22T03:13:52;16.10;99.90
54431;DHT22;40342;52.998;5.862;2023-06-22T03:16:18;16.60;99.90
54431;DHT22;40342;52.998;5.862;2023-06-22T03:18:44;16.10;99.90
54431;DHT22;40342;52.998;5.862;2023-06-22T03:21:10;16.10;99.90
54431;DHT22;40342;52.998;5.862;2023-06-22T03:23:36;16.10;99.90
54431;DHT22;40342;52.998;5.862;2023-06-22T03:26:02;16.10;99.90
54431;DHT22;40342;52.998;5.862;2023-06-22T03:28:27;16.00;99.90
54431;DHT22;40342;52.998;5.862;2023-06-22T03:30:53;16.00;99.90
54431;DHT22;40342;52.998;5.862;2023-06-22T03:33:19;16.00;99.90
54431;DHT22;40342;52.998;5.862;2023-06-22T03:35:44;15.90;99.90
54431;DHT22;40342;52.998;5.862;2023-06-22T03:38:10;15.90;99.90
54431;DHT22;40342;52.998;5.862;2023-06-22T03:40:35;15.90;99.90
54431;DHT22;40342;52.998;5.862;2023-06-22T03:43:01;15.90;99.90
54431;DHT22;40342;52.998;5.862;2023-06-22T03:45:27;15.90;99.90
54431;DHT22;40342;52.998;5.862;2023-06-22T03:47:52;15.90;99.90
54431;DHT22;40342;52.998;5.862;2023-06-22T03:50:18;15.90;99.90
54431;DHT22;40342;52.998;5.862;2023-06-22T03:52:46;15.90;99.90
54431;DHT22;40342;52.998;5.862;2023-06-22T03:55:11;15.90;99.90
54431;DHT22;40342;52.998;5.862;2023-06-22T03:57:37;15.80;99.90
54431;DHT22;40342;52.998;5.862;2023-06-22T04:00:02;15.80;99.90
54431;DHT22;40342;52.998;5.862;2023-06-22T04:02:31;15.80;99.90
54431;DHT22;40342;52.998;5.862;2023-06-22T04:04:56;15.70;99.90
54431;DHT22;40342;52.998;5.862;2023-06-22T04:07:22;15.80;99.90
54431;DHT22;40342;52.998;5.862;2023-06-22T04:09:48;15.80;99.90
54431;DHT22;40342;52.998;5.862;2023-06-22T04:12:13;15.80;99.90
54431;DHT22;40342;52.998;5.862;2023-06-22T04:14:39;15.80;99.90
54431;DHT22;40342;52.998;5.862;2023-06-22T04:17:05;15.80;99.90
54431;DHT22;40342;52.998;5.862;2023-06-22T04:19:30;15.90;99.90
54431;DHT22;40342;52.998;5.862;2023-06-22T04:21:56;15.90;99.90
54431;DHT22;40342;52.998;5.862;2023-06-22T04:24:21;16.00;99.90
54431;DHT22;40342;52.998;5.862;2023-06-22T04:26:47;16.00;99.90
54431;DHT22;40342;52.998;5.862;2023-06-22T04:29:13;16.00;99.90
54431;DHT22;40342;52.998;5.862;2023-06-22T04:31:39;16.10;99.90
54431;DHT22;40342;52.998;5.862;2023-06-22T04:34:05;16.10;99.90
54431;DHT22;40342;52.998;5.862;2023-06-22T04:36:38;16.20;99.90
54431;DHT22;40342;52.998;5.862;2023-06-22T04:39:06;16.20;99.90
54431;DHT22;40342;52.998;5.862;2023-06-22T04:41:32;16.20;99.90
54431;DHT22;40342;52.998;5.862;2023-06-22T04:44:15;16.20;99.90
54431;DHT22;40342;52.998;5.862;2023-06-22T04:46:57;16.30;99.90
54431;DHT22;40342;52.998;5.862;2023-06-22T04:49:25;16.30;99.90
54431;DHT22;40342;52.998;5.862;2023-06-22T04:52:01;16.40;99.90
54431;DHT22;40342;52.998;5.862;2023-06-22T04:54:26;16.40;99.90
54431;DHT22;40342;52.998;5.862;2023-06-22T04:56:52;16.50;99.90
54431;DHT22;40342;52.998;5.862;2023-06-22T04:59:24;16.50;99.90
54431;DHT22;40342;52.998;5.862;2023-06-22T05:01:58;16.50;99.90
54431;DHT22;40342;52.998;5.862;2023-06-22T05:04:25;16.60;99.90
54431;DHT22;40342;52.998;5.862;2023-06-22T05:06:51;16.60;99.90
54431;DHT22;40342;52.998;5.862;2023-06-22T05:09:17;16.60;99.90
54431;DHT22;40342;52.998;5.862;2023-06-22T05:11:44;16.70;99.90
54431;DHT22;40342;52.998;5.862;2023-06-22T05:14:09;16.70;99.90
54431;DHT22;40342;52.998;5.862;2023-06-22T05:16:36;16.70;99.90
54431;DHT22;40342;52.998;5.862;2023-06-22T05:19:02;16.70;99.90
54431;DHT22;40342;52.998;5.862;2023-06-22T05:21:30;16.80;99.90
54431;DHT22;40342;52.998;5.862;2023-06-22T05:23:56;16.80;99.90
54431;DHT22;40342;52.998;5.862;2023-06-22T05:26:26;16.90;99.90
54431;DHT22;40342;52.998;5.862;2023-06-22T05:28:55;16.90;99.90
54431;DHT22;40342;52.998;5.862;2023-06-22T05:31:20;17.00;99.90
54431;DHT22;40342;52.998;5.862;2023-06-22T05:33:47;17.00;99.90
54431;DHT22;40342;52.998;5.862;2023-06-22T05:36:13;17.00;99.90
54431;DHT22;40342;52.998;5.862;2023-06-22T05:38:39;17.10;99.90
54431;DHT22;40342;52.998;5.862;2023-06-22T05:41:05;17.10;99.90
54431;DHT22;40342;52.998;5.862;2023-06-22T05:43:31;17.10;99.90
54431;DHT22;40342;52.998;5.862;2023-06-22T05:45:57;17.20;99.90
54431;DHT22;40342;52.998;5.862;2023-06-22T05:48:22;17.20;99.90
54431;DHT22;40342;52.998;5.862;2023-06-22T05:50:48;17.30;99.90
54431;DHT22;40342;52.998;5.862;2023-06-22T05:53:14;17.30;99.90
54431;DHT22;40342;52.998;5.862;2023-06-22T05:55:39;17.40;99.90
54431;DHT22;40342;52.998;5.862;2023-06-22T05:58:05;17.40;99.90
54431;DHT22;40342;52.998;5.862;2023-06-22T06:00:31;17.50;99.90
54431;DHT22;40342;52.998;5.862;2023-06-22T06:02:57;17.50;99.90
54431;DHT22;40342;52.998;5.862;2023-06-22T06:05:31;17.50;99.90
54431;DHT22;40342;52.998;5.862;2023-06-22T06:07:57;17.60;99.90
54431;DHT22;40342;52.998;5.862;2023-06-22T06:10:23;17.70;99.90
54431;DHT22;40342;52.998;5.862;2023-06-22T06:12:48;17.70;99.90
54431;DHT22;40342;52.998;5.862;2023-06-22T06:15:14;17.70;99.90
54431;DHT22;40342;52.998;5.862;2023-06-22T06:17:51;17.80;99.90
54431;DHT22;40342;52.998;5.862;2023-06-22T06:20:19;17.90;99.90
54431;DHT22;40342;52.998;5.862;2023-06-22T06:22:45;17.90;99.90
54431;DHT22;40342;52.998;5.862;2023-06-22T06:25:11;18.10;99.90
54431;DHT22;40342;52.998;5.862;2023-06-22T06:27:45;18.10;99.90
54431;DHT22;40342;52.998;5.862;2023-06-22T06:30:15;18.20;99.90
54431;DHT22;40342;52.998;5.862;2023-06-22T06:32:41;18.20;99.90
54431;DHT22;40342;52.998;5.862;2023-06-22T06:35:08;18.30;99.90
54431;DHT22;40342;52.998;5.862;2023-06-22T06:37:38;18.30;99.90
54431;DHT22;40342;52.998;5.862;2023-06-22T06:40:08;18.40;99.90
54431;DHT22;40342;52.998;5.862;2023-06-22T06:42:37;18.40;99.90
54431;DHT22;40342;52.998;5.862;2023-06-22T06:45:06;18.50;99.90
54431;DHT22;40342;52.998;5.862;2023-06-22T06:47:32;18.50;99.90
54431;DHT22;40342;52.998;5.862;2023-06-22T06:49:57;18.60;99.90
54431;DHT22;40342;52.998;5.862;2023-06-22T06:52:23;18.60;99.90
54431;DHT22;40342;52.998;5.862;2023-06-22T06:54:48;18.60;99.90
54431;DHT22;40342;52.998;5.862;2023-06-22T06:57:14;18.70;99.90
54431;DHT22;40342;52.998;5.862;2023-06-22T06:59:40;18.70;99.90
54431;DHT22;40342;52.998;5.862;2023-06-22T07:02:06;18.80;99.90
54431;DHT22;40342;52.998;5.862;2023-06-22T07:04:32;18.80;99.90
54431;DHT22;40342;52.998;5.862;2023-06-22T07:07:00;18.90;99.90
54431;DHT22;40342;52.998;5.862;2023-06-22T07:09:26;18.90;99.90
54431;DHT22;40342;52.998;5.862;2023-06-22T07:11:52;18.90;99.90
54431;DHT22;40342;52.998;5.862;2023-06-22T07:14:17;19.00;99.90
54431;DHT22;40342;52.998;5.862;2023-06-22T07:16:43;19.00;99.90
54431;DHT22;40342;52.998;5.862;2023-06-22T07:19:10;19.00;99.90
54431;DHT22;40342;52.998;5.862;2023-06-22T07:21:36;19.10;99.90
54431;DHT22;40342;52.998;5.862;2023-06-22T07:24:01;19.10;99.90
54431;DHT22;40342;52.998;5.862;2023-06-22T07:26:27;19.20;99.90
54431;DHT22;40342;52.998;5.862;2023-06-22T07:28:52;19.20;99.90
54431;DHT22;40342;52.998;5.862;2023-06-22T07:31:18;19.20;99.90
54431;DHT22;40342;52.998;5.862;2023-06-22T07:33:44;19.30;99.90
54431;DHT22;40342;52.998;5.862;2023-06-22T07:36:09;19.30;99.90
54431;DHT22;40342;52.998;5.862;2023-06-22T07:38:35;19.40;99.90
54431;DHT22;40342;52.998;5.862;2023-06-22T07:41:01;19.50;99.90
54431;DHT22;40342;52.998;5.862;2023-06-22T07:43:27;19.50;99.90
54431;DHT22;40342;52.998;5.862;2023-06-22T07:45:55;19.60;99.90
54431;DHT22;40342;52.998;5.862;2023-06-22T07:48:21;19.70;99.90
54431;DHT22;40342;52.998;5.862;2023-06-22T07:50:47;19.70;99.90
54431;DHT22;40342;52.998;5.862;2023-06-22T07:53:13;19.80;99.90
54431;DHT22;40342;52.998;5.862;2023-06-22T07:55:39;19.90;99.90
54431;DHT22;40342;52.998;5.862;2023-06-22T07:58:04;19.90;99.90
54431;DHT22;40342;52.998;5.862;2023-06-22T08:00:30;19.90;99.90
54431;DHT22;40342;52.998;5.862;2023-06-22T08:02:56;20.00;99.90
54431;DHT22;40342;52.998;5.862;2023-06-22T08:05:21;20.00;99.90
54431;DHT22;40342;52.998;5.862;2023-06-22T08:07:47;20.10;99.90
54431;DHT22;40342;52.998;5.862;2023-06-22T08:10:13;20.20;99.90
54431;DHT22;40342;52.998;5.862;2023-06-22T08:12:39;20.20;99.90
54431;DHT22;40342;52.998;5.862;2023-06-22T08:15:06;20.30;99.90
54431;DHT22;40342;52.998;5.862;2023-06-22T08:17:33;20.40;99.90
54431;DHT22;40342;52.998;5.862;2023-06-22T08:19:58;20.50;99.90
54431;DHT22;40342;52.998;5.862;2023-06-22T08:22:24;20.50;99.90
54431;DHT22;40342;52.998;5.862;2023-06-22T08:24:49;20.60;99.90
54431;DHT22;40342;52.998;5.862;2023-06-22T08:27:15;20.70;99.90
54431;DHT22;40342;52.998;5.862;2023-06-22T08:29:42;20.80;99.90
54431;DHT22;40342;52.998;5.862;2023-06-22T08:32:09;20.80;99.90
54431;DHT22;40342;52.998;5.862;2023-06-22T08:34:36;20.90;99.90
54431;DHT22;40342;52.998;5.862;2023-06-22T08:37:01;21.00;99.90
54431;DHT22;40342;52.998;5.862;2023-06-22T08:39:31;21.00;99.90
54431;DHT22;40342;52.998;5.862;2023-06-22T08:41:57;21.10;99.90
54431;DHT22;40342;52.998;5.862;2023-06-22T08:44:22;21.20;99.90
54431;DHT22;40342;52.998;5.862;2023-06-22T08:46:48;21.30;99.90
54431;DHT22;40342;52.998;5.862;2023-06-22T08:49:14;21.40;99.90
54431;DHT22;40342;52.998;5.862;2023-06-22T08:51:40;21.50;99.90
54431;DHT22;40342;52.998;5.862;2023-06-22T08:54:05;21.50;99.90
54431;DHT22;40342;52.998;5.862;2023-06-22T08:56:31;21.60;99.90
54431;DHT22;40342;52.998;5.862;2023-06-22T08:58:56;21.70;99.90
54431;DHT22;40342;52.998;5.862;2023-06-22T09:01:22;21.80;99.90
54431;DHT22;40342;52.998;5.862;2023-06-22T09:03:48;21.90;99.90
54431;DHT22;40342;52.998;5.862;2023-06-22T09:06:20;22.00;99.90
54431;DHT22;40342;52.998;5.862;2023-06-22T09:08:46;22.10;99.90
54431;DHT22;40342;52.998;5.862;2023-06-22T09:11:12;22.10;99.90
54431;DHT22;40342;52.998;5.862;2023-06-22T09:13:38;22.20;99.90
54431;DHT22;40342;52.998;5.862;2023-06-22T09:16:04;22.30;99.90
54431;DHT22;40342;52.998;5.862;2023-06-22T09:18:29;22.40;99.90
54431;DHT22;40342;52.998;5.862;2023-06-22T09:20:55;22.40;99.90
54431;DHT22;40342;52.998;5.862;2023-06-22T09:23:20;22.50;99.90
54431;DHT22;40342;52.998;5.862;2023-06-22T09:25:46;22.60;99.90
54431;DHT22;40342;52.998;5.862;2023-06-22T09:28:16;22.60;99.90
54431;DHT22;40342;52.998;5.862;2023-06-22T09:30:43;22.80;99.90
54431;DHT22;40342;52.998;5.862;2023-06-22T09:33:12;22.80;99.90
54431;DHT22;40342;52.998;5.862;2023-06-22T09:35:37;22.90;99.90
54431;DHT22;40342;52.998;5.862;2023-06-22T09:38:03;23.00;99.90
54431;DHT22;40342;52.998;5.862;2023-06-22T09:40:28;23.00;99.90
54431;DHT22;40342;52.998;5.862;2023-06-22T09:42:54;23.10;99.90
54431;DHT22;40342;52.998;5.862;2023-06-22T09:45:19;23.20;99.90
54431;DHT22;40342;52.998;5.862;2023-06-22T09:47:45;23.30;99.90
54431;DHT22;40342;52.998;5.862;2023-06-22T09:50:10;23.40;99.90
54431;DHT22;40342;52.998;5.862;2023-06-22T09:52:36;23.40;99.90
54431;DHT22;40342;52.998;5.862;2023-06-22T09:55:02;23.50;99.90
54431;DHT22;40342;52.998;5.862;2023-06-22T09:57:29;23.60;99.90
54431;DHT22;40342;52.998;5.862;2023-06-22T09:59:55;23.70;99.90
54431;DHT22;40342;52.998;5.862;2023-06-22T10:02:20;23.80;99.90
54431;DHT22;40342;52.998;5.862;2023-06-22T10:04:47;24.00;99.90
54431;DHT22;40342;52.998;5.862;2023-06-22T10:07:13;24.00;99.90
54431;DHT22;40342;52.998;5.862;2023-06-22T10:09:38;24.10;99.90
54431;DHT22;40342;52.998;5.862;2023-06-22T10:12:04;24.30;99.90
54431;DHT22;40342;52.998;5.862;2023-06-22T10:14:30;24.30;99.90
54431;DHT22;40342;52.998;5.862;2023-06-22T10:16:55;24.40;99.90
54431;DHT22;40342;52.998;5.862;2023-06-22T10:19:21;24.50;99.90
54431;DHT22;40342;52.998;5.862;2023-06-22T10:21:47;24.60;99.90
54431;DHT22;40342;52.998;5.862;2023-06-22T10:24:12;24.70;99.90
54431;DHT22;40342;52.998;5.862;2023-06-22T10:26:38;24.80;99.90
54431;DHT22;40342;52.998;5.862;2023-06-22T10:29:03;25.00;99.90
54431;DHT22;40342;52.998;5.862;2023-06-22T10:31:29;25.00;99.90
54431;DHT22;40342;52.998;5.862;2023-06-22T10:33:55;25.10;99.90
54431;DHT22;40342;52.998;5.862;2023-06-22T10:36:23;25.10;99.90
54431;DHT22;40342;52.998;5.862;2023-06-22T10:38:49;25.10;99.90
54431;DHT22;40342;52.998;5.862;2023-06-22T10:41:15;25.20;99.90
54431;DHT22;40342;52.998;5.862;2023-06-22T10:43:41;25.30;99.90
54431;DHT22;40342;52.998;5.862;2023-06-22T10:46:07;25.80;99.90
54431;DHT22;40342;52.998;5.862;2023-06-22T10:48:32;25.40;99.90
54431;DHT22;40342;52.998;5.862;2023-06-22T10:50:58;25.50;99.90
54431;DHT22;40342;52.998;5.862;2023-06-22T10:53:23;25.60;99.90
54431;DHT22;40342;52.998;5.862;2023-06-22T10:55:49;25.60;99.90
54431;DHT22;40342;52.998;5.862;2023-06-22T10:58:15;25.70;99.90
54431;DHT22;40342;52.998;5.862;2023-06-22T11:00:40;25.80;99.90
54431;DHT22;40342;52.998;5.862;2023-06-22T11:03:06;25.80;99.90
54431;DHT22;40342;52.998;5.862;2023-06-22T11:05:32;26.00;99.90
54431;DHT22;40342;52.998;5.862;2023-06-22T11:07:57;26.00;99.90
54431;DHT22;40342;52.998;5.862;2023-06-22T11:10:23;26.00;99.90
54431;DHT22;40342;52.998;5.862;2023-06-22T11:12:49;26.00;99.90
54431;DHT22;40342;52.998;5.862;2023-06-22T11:15:14;26.00;99.90
54431;DHT22;40342;52.998;5.862;2023-06-22T11:17:40;26.00;99.90
54431;DHT22;40342;52.998;5.862;2023-06-22T11:20:06;26.00;99.90
54431;DHT22;40342;52.998;5.862;2023-06-22T11:22:39;26.00;99.90
54431;DHT22;40342;52.998;5.862;2023-06-22T11:25:05;25.90;99.90
54431;DHT22;40342;52.998;5.862;2023-06-22T11:27:31;26.00;99.90
54431;DHT22;40342;52.998;5.862;2023-06-22T11:29:57;25.90;99.90
54431;DHT22;40342;52.998;5.862;2023-06-22T11:32:23;25.90;99.90
54431;DHT22;40342;52.998;5.862;2023-06-22T11:34:49;25.90;99.90
54431;DHT22;40342;52.998;5.862;2023-06-22T11:37:14;25.90;99.90
54431;DHT22;40342;52.998;5.862;2023-06-22T11:39:41;25.90;99.90
54431;DHT22;40342;52.998;5.862;2023-06-22T11:42:07;25.90;99.90
54431;DHT22;40342;52.998;5.862;2023-06-22T11:44:32;25.80;99.90
54431;DHT22;40342;52.998;5.862;2023-06-22T11:46:58;25.90;99.90
54431;DHT22;40342;52.998;5.862;2023-06-22T11:49:26;25.70;99.90
54431;DHT22;40342;52.998;5.862;2023-06-22T11:51:52;25.80;99.90
54431;DHT22;40342;52.998;5.862;2023-06-22T11:54:17;25.70;99.90
54431;DHT22;40342;52.998;5.862;2023-06-22T11:56:43;25.70;99.90
54431;DHT22;40342;52.998;5.862;2023-06-22T11:59:09;25.70;99.90
54431;DHT22;40342;52.998;5.862;2023-06-22T12:01:34;25.70;99.90
54431;DHT22;40342;52.998;5.862;2023-06-22T12:04:00;25.70;99.90
54431;DHT22;40342;52.998;5.862;2023-06-22T12:06:25;25.70;99.90
54431;DHT22;40342;52.998;5.862;2023-06-22T12:08:51;25.70;99.90
54431;DHT22;40342;52.998;5.862;2023-06-22T12:11:16;25.70;99.90
54431;DHT22;40342;52.998;5.862;2023-06-22T12:13:42;25.70;99.90
54431;DHT22;40342;52.998;5.862;2023-06-22T12:16:07;25.70;99.90
54431;DHT22;40342;52.998;5.862;2023-06-22T12:18:33;25.60;99.90
54431;DHT22;40342;52.998;5.862;2023-06-22T12:20:59;25.60;99.90
54431;DHT22;40342;52.998;5.862;2023-06-22T12:23:24;25.60;99.90
54431;DHT22;40342;52.998;5.862;2023-06-22T12:25:50;25.50;99.90
54431;DHT22;40342;52.998;5.862;2023-06-22T12:28:15;25.50;99.90
54431;DHT22;40342;52.998;5.862;2023-06-22T12:30:41;25.40;99.90
54431;DHT22;40342;52.998;5.862;2023-06-22T12:33:07;25.50;99.90
54431;DHT22;40342;52.998;5.862;2023-06-22T12:35:32;25.40;99.90
54431;DHT22;40342;52.998;5.862;2023-06-22T12:37:58;25.50;99.90
54431;DHT22;40342;52.998;5.862;2023-06-22T12:40:24;25.40;99.90
54431;DHT22;40342;52.998;5.862;2023-06-22T12:42:50;25.50;99.90
54431;DHT22;40342;52.998;5.862;2023-06-22T12:45:15;25.40;99.90
54431;DHT22;40342;52.998;5.862;2023-06-22T12:47:41;25.40;99.90
54431;DHT22;40342;52.998;5.862;2023-06-22T12:50:07;25.50;99.90
54431;DHT22;40342;52.998;5.862;2023-06-22T12:52:32;25.50;99.90
54431;DHT22;40342;52.998;5.862;2023-06-22T12:54:58;25.40;99.90
54431;DHT22;40342;52.998;5.862;2023-06-22T12:57:24;25.40;99.90
54431;DHT22;40342;52.998;5.862;2023-06-22T12:59:49;25.50;99.90
54431;DHT22;40342;52.998;5.862;2023-06-22T13:02:15;25.50;99.90
54431;DHT22;40342;52.998;5.862;2023-06-22T13:04:40;25.40;99.90
54431;DHT22;40342;52.998;5.862;2023-06-22T13:07:06;25.40;99.90
54431;DHT22;40342;52.998;5.862;2023-06-22T13:09:32;25.40;99.90
54431;DHT22;40342;52.998;5.862;2023-06-22T13:12:00;25.40;99.90
54431;DHT22;40342;52.998;5.862;2023-06-22T13:14:25;25.40;99.90
54431;DHT22;40342;52.998;5.862;2023-06-22T13:16:51;25.40;99.90
54431;DHT22;40342;52.998;5.862;2023-06-22T13:19:16;25.40;99.90
54431;DHT22;40342;52.998;5.862;2023-06-22T13:21:42;25.30;99.90
54431;DHT22;40342;52.998;5.862;2023-06-22T13:24:07;25.30;99.90
54431;DHT22;40342;52.998;5.862;2023-06-22T13:26:33;25.30;99.90
54431;DHT22;40342;52.998;5.862;2023-06-22T13:28:59;25.20;99.90
54431;DHT22;40342;52.998;5.862;2023-06-22T13:31:24;25.10;99.90
54431;DHT22;40342;52.998;5.862;2023-06-22T13:33:52;25.10;99.90
54431;DHT22;40342;52.998;5.862;2023-06-22T13:36:20;25.10;99.90
54431;DHT22;40342;52.998;5.862;2023-06-22T13:38:48;25.10;99.90
54431;DHT22;40342;52.998;5.862;2023-06-22T13:41:13;25.00;99.90
54431;DHT22;40342;52.998;5.862;2023-06-22T13:43:39;25.00;99.90
54431;DHT22;40342;52.998;5.862;2023-06-22T13:46:04;24.90;99.90
54431;DHT22;40342;52.998;5.862;2023-06-22T13:48:30;24.80;99.90
54431;DHT22;40342;52.998;5.862;2023-06-22T13:50:55;24.80;99.90
54431;DHT22;40342;52.998;5.862;2023-06-22T13:53:21;24.70;99.90
54431;DHT22;40342;52.998;5.862;2023-06-22T13:55:47;24.70;99.90
54431;DHT22;40342;52.998;5.862;2023-06-22T13:58:13;24.70;99.90
54431;DHT22;40342;52.998;5.862;2023-06-22T14:00:39;24.60;99.90
54431;DHT22;40342;52.998;5.862;2023-06-22T14:03:04;24.50;99.90
54431;DHT22;40342;52.998;5.862;2023-06-22T14:05:30;24.50;99.90
54431;DHT22;40342;52.998;5.862;2023-06-22T14:07:55;24.50;99.90
54431;DHT22;40342;52.998;5.862;2023-06-22T14:10:21;24.40;99.90
54431;DHT22;40342;52.998;5.862;2023-06-22T14:12:47;24.30;99.90
54431;DHT22;40342;52.998;5.862;2023-06-22T14:15:12;24.30;99.90
54431;DHT22;40342;52.998;5.862;2023-06-22T14:17:38;24.20;99.90
54431;DHT22;40342;52.998;5.862;2023-06-22T14:20:03;24.10;99.90
54431;DHT22;40342;52.998;5.862;2023-06-22T14:22:30;24.10;99.90
54431;DHT22;40342;52.998;5.862;2023-06-22T14:24:56;24.10;99.90
54431;DHT22;40342;52.998;5.862;2023-06-22T14:27:23;24.00;99.90
54431;DHT22;40342;52.998;5.862;2023-06-22T14:29:49;23.90;99.90
54431;DHT22;40342;52.998;5.862;2023-06-22T14:32:14;23.90;99.90
54431;DHT22;40342;52.998;5.862;2023-06-22T14:34:40;23.80;99.90
54431;DHT22;40342;52.998;5.862;2023-06-22T14:37:06;23.80;99.90
54431;DHT22;40342;52.998;5.862;2023-06-22T14:39:33;23.70;99.90
54431;DHT22;40342;52.998;5.862;2023-06-22T14:41:58;23.60;99.90
54431;DHT22;40342;52.998;5.862;2023-06-22T14:44:26;23.60;99.90
54431;DHT22;40342;52.998;5.862;2023-06-22T14:46:51;23.50;99.90
54431;DHT22;40342;52.998;5.862;2023-06-22T14:49:17;23.50;99.90
54431;DHT22;40342;52.998;5.862;2023-06-22T14:51:42;23.50;99.90
54431;DHT22;40342;52.998;5.862;2023-06-22T14:54:08;23.40;99.90
54431;DHT22;40342;52.998;5.862;2023-06-22T14:56:33;23.30;99.90
54431;DHT22;40342;52.998;5.862;2023-06-22T14:59:01;23.30;99.90
54431;DHT22;40342;52.998;5.862;2023-06-22T15:01:26;23.20;99.90
54431;DHT22;40342;52.998;5.862;2023-06-22T15:03:52;23.20;99.90
54431;DHT22;40342;52.998;5.862;2023-06-22T15:06:17;23.10;99.90
54431;DHT22;40342;52.998;5.862;2023-06-22T15:08:43;23.20;99.90
54431;DHT22;40342;52.998;5.862;2023-06-22T15:11:09;23.10;99.90
54431;DHT22;40342;52.998;5.862;2023-06-22T15:13:35;23.00;99.90
54431;DHT22;40342;52.998;5.862;2023-06-22T15:16:03;22.90;99.90
54431;DHT22;40342;52.998;5.862;2023-06-22T15:18:29;22.90;99.90
54431;DHT22;40342;52.998;5.862;2023-06-22T15:20:55;22.90;99.90
54431;DHT22;40342;52.998;5.862;2023-06-22T15:23:21;22.90;99.90
54431;DHT22;40342;52.998;5.862;2023-06-22T15:25:47;22.80;99.90
54431;DHT22;40342;52.998;5.862;2023-06-22T15:28:13;22.80;99.90
54431;DHT22;40342;52.998;5.862;2023-06-22T15:30:38;22.70;99.90